Orangevale, California
Current Conditions -  °F | °C
As of 3:45 AM on Saturday 22 Nov 2014 (Local Time) from KMHR Reporting Station
Overcast Overcast  
Wind Chill: 54°   Ceiling: 3000
Heat Index: 54°   Visibility: 5mi
Dew Point: 54°   Wind: 13mph
Humidity: 100%   Direction: 170°S
Pressure: 30.09"   Gusts: NA
Location:  38.68°N, 121.22°W
Report Text: KMHR 221145Z 17011KT 5SM OVC030 12/12 A3009
Loading
Personal Weather Stations






























Interactive Weather Map New forecast layout! Learn more

10-Day Weather Forecast

Advertisements
Track Severe Weather on mobile